Time;durP1;ratioP1;P1;durP2;ratioP2;P2;SDS_P1;SDS_P2;PMS_P1;PMS_P2;Temp;Humidity;BMP_temperature;BMP_pressure;BME280_temperature;BME280_humidity;BME280_pressure;Samples;Min_cycle;Max_cycle;Signal;HPM_P1;HPM_P2
2022/08/19 00:02:19;;;;;;;13.10;11.90;;;;;;;20.65;78.13;101363.59;5000112;28;21111;-50
2022/08/19 00:04:46;;;;;;;12.98;11.68;;;;;;;20.68;77.92;101357.47;4998922;28;20088;-53
2022/08/19 00:07:12;;;;;;;12.98;11.68;;;;;;;20.67;77.93;101358.34;4998294;28;20041;-51
2022/08/19 00:09:38;;;;;;;13.15;11.85;;;;;;;20.67;77.66;101368.81;5000214;28;20029;-54
2022/08/19 00:12:03;;;;;;;14.43;12.02;;;;;;;20.60;78.36;101361.00;5000254;28;20394;-53
2022/08/19 00:14:31;;;;;;;13.30;12.00;;;;;;;20.54;78.12;101361.03;4993034;28;20081;-53
2022/08/19 00:16:56;;;;;;;13.77;12.25;;;;;;;20.55;78.51;101361.91;4995988;28;20034;-53
2022/08/19 00:19:23;;;;;;;15.95;12.30;;;;;;;20.53;78.23;101361.91;4999593;28;20049;-53
2022/08/19 00:21:49;;;;;;;15.65;12.00;;;;;;;20.50;78.60;101363.66;4998858;28;20049;-52
2022/08/19 00:24:15;;;;;;;13.93;11.73;;;;;;;20.49;78.28;101360.19;4997903;28;20096;-53
2022/08/19 00:26:43;;;;;;;13.27;11.65;;;;;;;20.54;78.23;101365.38;4999301;28;20517;-53
2022/08/19 00:29:11;;;;;;;13.45;12.15;;;;;;;20.49;78.73;101364.53;4998516;28;20213;-53
2022/08/19 00:31:36;;;;;;;13.68;12.38;;;;;;;20.46;79.13;101365.44;4996099;28;20581;-53
2022/08/19 00:34:02;;;;;;;13.38;12.07;;;;;;;20.51;78.74;101368.91;4997501;28;20117;-53
2022/08/19 00:36:28;;;;;;;15.55;13.18;;;;;;;20.49;78.83;101357.56;4997929;28;20038;-52
2022/08/19 00:38:54;;;;;;;14.27;12.82;;;;;;;20.42;79.08;101365.41;4997668;28;20033;-54
2022/08/19 00:41:21;;;;;;;15.52;12.48;;;;;;;20.38;78.75;101369.78;4998419;28;20069;-52
2022/08/19 00:44:04;;;;;;;14.30;12.93;;;;;;;20.45;78.28;101366.31;4999344;28;20068;-53
2022/08/19 00:46:32;;;;;;;14.18;11.95;;;;;;;20.35;78.37;101373.28;4996125;28;20037;-53
2022/08/19 00:48:59;;;;;;;15.88;13.15;;;;;;;20.32;78.80;101370.69;4998018;28;20041;-51
2022/08/19 00:51:29;;;;;;;14.23;12.57;;;;;;;20.29;78.72;101365.47;4994147;28;20411;-53
2022/08/19 00:53:58;;;;;;;14.68;13.18;;;;;;;20.29;79.46;101362.84;4996623;28;20042;-52
2022/08/19 00:56:26;;;;;;;15.65;14.00;;;;;;;20.29;79.13;101360.25;4995172;28;20172;-53
2022/08/19 00:58:52;;;;;;;19.90;15.67;;;;;;;20.27;79.81;101362.00;4995406;28;20022;-56
2022/08/19 01:01:17;;;;;;;16.70;14.90;;;;;;;20.29;79.38;101362.84;4997314;28;20049;-53
2022/08/19 01:03:43;;;;;;;16.75;15.07;;;;;;;20.23;79.71;101360.28;4995072;28;20042;-52
2022/08/19 01:06:08;;;;;;;16.52;14.65;;;;;;;20.27;79.06;101351.56;5011976;28;20026;-53
2022/08/19 01:08:34;;;;;;;17.00;15.20;;;;;;;20.23;79.07;101357.66;4995827;28;20029;-52
2022/08/19 01:11:00;;;;;;;19.75;15.10;;;;;;;20.22;78.87;101360.28;4994830;28;20689;-53
2022/08/19 01:13:29;;;;;;;16.17;14.48;;;;;;;20.20;79.13;101362.00;4998503;28;20751;-53
2022/08/19 01:16:07;;;;;;;16.23;14.52;;;;;;;20.25;78.94;101368.94;4995669;28;20061;-54
2022/08/19 01:18:37;;;;;;;15.68;13.25;;;;;;;20.20;79.14;101386.38;4996146;28;20060;-52
2022/08/19 01:21:10;;;;;;;13.98;12.52;;;;;;;20.08;79.27;101375.97;4994698;28;20040;-52
2022/08/19 01:23:42;;;;;;;16.05;14.13;;;;;;;20.02;78.82;101376.00;4998472;28;20038;-53
2022/08/19 01:26:10;;;;;;;16.27;13.43;;;;;;;19.98;79.05;101371.66;4998902;28;20038;-52
2022/08/19 01:28:36;;;;;;;18.30;14.40;;;;;;;19.95;79.54;101361.22;4998075;28;20076;-52
2022/08/19 01:31:02;;;;;;;18.63;15.43;;;;;;;19.91;80.12;101360.38;4998620;28;20037;-53
2022/08/19 01:33:30;;;;;;;17.83;15.27;;;;;;;19.91;79.79;101367.34;4998379;28;20376;-53
2022/08/19 01:36:05;;;;;;;18.88;15.73;;;;;;;19.88;80.01;101362.97;4999175;28;20061;-54
2022/08/19 01:38:31;;;;;;;18.13;15.20;;;;;;;19.85;79.53;101362.13;4996561;28;20025;-53
2022/08/19 01:40:57;;;;;;;15.68;13.95;;;;;;;19.85;79.51;101365.63;4998806;28;20045;-52
2022/08/19 01:43:22;;;;;;;20.40;15.88;;;;;;;19.90;79.41;101361.25;4994928;28;20483;-53
2022/08/19 01:45:47;;;;;;;20.27;16.05;;;;;;;19.88;79.79;101365.59;5000391;28;20516;-52
2022/08/19 01:48:13;;;;;;;18.33;16.40;;;;;;;19.88;79.83;101362.97;4993535;28;20739;-53
2022/08/19 01:50:39;;;;;;;19.45;17.02;;;;;;;19.89;79.92;101362.09;4995765;28;20097;-54
2022/08/19 01:53:09;;;;;;;19.95;17.77;;;;;;;19.88;80.53;101364.72;4998350;28;20033;-52
2022/08/19 01:55:41;;;;;;;22.33;18.77;;;;;;;19.88;80.04;101359.50;5000435;28;20066;-52
2022/08/19 01:58:19;;;;;;;21.33;19.02;;;;;;;19.92;80.30;101362.13;4994301;28;20030;-53
2022/08/19 02:00:45;;;;;;;22.30;19.52;;;;;;;19.83;80.54;101360.38;4996574;28;20021;-53
2022/08/19 02:03:11;;;;;;;25.02;18.85;;;;;;;19.85;80.71;101349.09;4996830;28;20044;-53
2022/08/19 02:05:37;;;;;;;22.73;19.00;;;;;;;19.88;80.03;101362.13;4998197;28;20103;-53
2022/08/19 02:08:03;;;;;;;22.27;18.20;;;;;;;19.83;80.03;101368.19;4998347;28;20041;-52
2022/08/19 02:10:28;;;;;;;22.08;18.73;;;;;;;19.76;80.46;101363.88;4995608;28;20395;-53
2022/08/19 02:12:54;;;;;;;21.83;17.70;;;;;;;19.73;80.54;101363.03;4998752;28;20113;-53
2022/08/19 02:15:20;;;;;;;22.60;18.55;;;;;;;19.77;79.88;101375.19;4995395;28;20108;-53
2022/08/19 02:17:46;;;;;;;22.45;18.77;;;;;;;19.73;79.77;101369.13;4996000;28;20398;-53
2022/08/19 02:20:12;;;;;;;22.08;18.63;;;;;;;19.67;80.42;101379.56;4995885;28;20022;-53
2022/08/19 02:22:41;;;;;;;22.48;18.67;;;;;;;19.66;80.67;101376.97;4996284;28;20096;-53
2022/08/19 02:25:07;;;;;;;21.70;19.15;;;;;;;19.67;80.82;101381.31;4995733;28;20501;-53
2022/08/19 02:27:33;;;;;;;25.92;19.30;;;;;;;19.64;80.58;101381.28;4997113;28;20045;-52
2022/08/19 02:29:59;;;;;;;22.70;18.92;;;;;;;19.56;81.28;101371.69;4995367;28;20038;-53
2022/08/19 02:32:25;;;;;;;21.13;18.60;;;;;;;19.58;81.12;101386.47;4998741;28;20087;-52
2022/08/19 02:34:50;;;;;;;22.20;18.55;;;;;;;19.54;80.77;101386.50;4995857;28;20072;-53
2022/08/19 02:40:01;;;;;;;22.17;18.83;;;;;;;19.46;81.47;101385.59;4997680;28;20395;-51
2022/08/19 02:42:26;;;;;;;22.50;19.05;;;;;;;19.43;81.27;101385.63;4997720;28;20494;-51
2022/08/19 02:44:52;;;;;;;25.70;18.42;;;;;;;19.49;81.07;101389.97;4997088;28;20022;-53
2022/08/19 02:47:18;;;;;;;25.02;19.23;;;;;;;19.44;81.37;101383.88;4996752;28;20451;-53
2022/08/19 02:49:45;;;;;;;26.33;18.38;;;;;;;19.44;81.14;101399.53;4996034;28;20042;-51
2022/08/19 02:52:11;;;;;;;25.30;19.85;;;;;;;19.43;81.37;101392.59;4992226;28;20443;-51
2022/08/19 02:54:37;;;;;;;24.23;19.65;;;;;;;19.44;81.13;101396.94;4996942;28;20040;-52
2022/08/19 02:57:03;;;;;;;21.40;19.17;;;;;;;19.40;81.69;101400.38;5003933;28;20022;-52
2022/08/19 02:59:30;;;;;;;25.42;20.10;;;;;;;19.37;82.33;101398.66;5001564;28;20056;-52
2022/08/19 03:01:56;;;;;;;24.60;19.95;;;;;;;19.39;82.06;101403.88;5002637;28;20029;-52
2022/08/19 03:04:22;;;;;;;22.67;19.95;;;;;;;19.33;81.83;101403.88;5002122;28;20049;-53
2022/08/19 03:06:48;;;;;;;25.52;19.20;;;;;;;19.28;82.12;101396.91;5002326;28;20121;-53
2022/08/19 03:09:15;;;;;;;26.17;20.27;;;;;;;19.25;82.40;101398.66;5005004;28;20148;-53
2022/08/19 03:11:40;;;;;;;22.70;20.08;;;;;;;19.26;82.32;101390.81;5004875;28;20494;-53
2022/08/19 03:14:08;;;;;;;23.70;19.90;;;;;;;19.27;82.37;101382.13;5000288;28;20040;-54
2022/08/19 03:16:42;;;;;;;24.40;19.83;;;;;;;19.22;82.33;101391.69;5001151;28;20025;-53
2022/08/19 03:19:07;;;;;;;23.85;20.00;;;;;;;19.22;82.25;101390.81;5004754;28;21049;-52
2022/08/19 03:21:34;;;;;;;23.10;20.10;;;;;;;19.19;82.66;101396.91;5002338;28;20113;-52
2022/08/19 03:24:02;;;;;;;22.80;19.67;;;;;;;19.22;82.47;101402.09;4999057;28;20040;-52
2022/08/19 03:26:28;;;;;;;22.75;20.38;;;;;;;19.20;82.32;101393.44;5002330;28;20470;-52
2022/08/19 03:28:54;;;;;;;28.00;20.30;;;;;;;19.14;82.50;101397.78;5001886;28;20120;-53
2022/08/19 03:31:25;;;;;;;23.23;19.63;;;;;;;19.16;82.20;101396.03;5007840;28;20122;-53
2022/08/19 03:33:52;;;;;;;23.30;19.70;;;;;;;19.13;82.49;101393.44;5003269;28;20485;-53
2022/08/19 03:36:23;;;;;;;25.25;19.08;;;;;;;19.12;82.06;101392.56;5001138;28;20045;-53
2022/08/19 03:38:54;;;;;;;23.17;18.83;;;;;;;19.12;82.31;101397.78;5002520;28;20033;-53
2022/08/19 03:41:22;;;;;;;23.38;19.58;;;;;;;19.11;82.02;101390.81;5002441;28;20014;-53
2022/08/19 03:43:48;;;;;;;25.23;19.70;;;;;;;19.11;82.19;101393.44;5003712;28;20238;-53
2022/08/19 03:46:20;;;;;;;24.52;19.02;;;;;;;19.14;81.85;101390.81;5000266;28;20183;-53
2022/08/19 03:48:47;;;;;;;22.42;19.48;;;;;;;19.08;81.91;101387.34;5002970;28;20043;-53
2022/08/19 03:51:30;;;;;;;21.98;18.75;;;;;;;19.16;81.28;101386.47;4999256;28;20054;-53
2022/08/19 03:53:57;;;;;;;22.27;19.58;;;;;;;19.07;81.90;101381.25;5002597;28;20037;-53
2022/08/19 03:56:25;;;;;;;23.55;19.48;;;;;;;19.08;82.03;101380.38;5001111;28;20038;-53
2022/08/19 03:58:50;;;;;;;24.20;19.65;;;;;;;19.12;81.79;101379.53;5004344;28;20026;-53
2022/08/19 04:01:19;;;;;;;23.20;19.25;;;;;;;19.11;81.57;101384.72;5001747;28;20455;-50
2022/08/19 04:03:48;;;;;;;24.48;20.02;;;;;;;19.03;81.66;101380.38;5001366;28;20029;-53
2022/08/19 04:06:25;;;;;;;22.25;19.30;;;;;;;19.12;81.64;101387.34;5000220;28;20139;-53
2022/08/19 04:08:53;;;;;;;23.17;19.55;;;;;;;19.02;81.71;101393.41;4999796;28;20030;-52
2022/08/19 04:11:22;;;;;;;25.58;20.23;;;;;;;19.08;81.20;101392.53;5003666;28;20398;-51
2022/08/19 04:13:48;;;;;;;26.48;20.23;;;;;;;19.04;81.54;101389.06;5002478;28;20026;-53
2022/08/19 04:16:14;;;;;;;24.38;20.52;;;;;;;19.00;82.13;101379.50;5001386;28;20041;-53
2022/08/19 04:18:40;;;;;;;24.45;20.40;;;;;;;19.00;82.03;101385.59;5000113;28;20525;-53
2022/08/19 04:21:08;;;;;;;24.13;20.80;;;;;;;18.95;82.36;101389.06;5001151;28;20561;-50
2022/08/19 04:23:35;;;;;;;26.35;21.35;;;;;;;18.89;82.58;101382.09;5001457;28;20022;-53
2022/08/19 04:26:01;;;;;;;26.13;21.05;;;;;;;18.83;82.92;101387.28;4997756;28;20463;-53
2022/08/19 04:28:28;;;;;;;25.83;21.45;;;;;;;18.79;82.83;101379.44;5000142;28;20128;-53
2022/08/19 04:30:55;;;;;;;25.33;20.63;;;;;;;18.81;82.50;101375.09;4999143;28;20034;-54
2022/08/19 04:33:23;;;;;;;25.08;21.08;;;;;;;18.75;82.52;101383.81;4997112;28;20022;-52
2022/08/19 04:35:51;;;;;;;27.13;20.45;;;;;;;18.71;82.45;101379.44;5000278;28;20034;-52
2022/08/19 04:38:18;;;;;;;24.08;19.95;;;;;;;18.72;83.07;101378.56;4997848;28;20034;-52
2022/08/19 04:43:35;;;;;;;24.58;21.85;;;;;;;18.61;83.17;101373.28;4989705;28;20483;-54
2022/08/19 04:46:08;;;;;;;25.85;20.73;;;;;;;18.65;83.49;101376.78;5001036;28;20038;-50
2022/08/19 04:48:34;;;;;;;23.85;20.33;;;;;;;18.61;83.07;101380.22;4997330;28;20068;-53
2022/08/19 04:51:00;;;;;;;25.58;20.45;;;;;;;18.57;82.87;101387.19;5000975;28;20053;-52
2022/08/19 04:53:28;;;;;;;24.42;19.80;;;;;;;18.60;82.48;101383.72;4996353;28;20053;-51
2022/08/19 04:55:57;;;;;;;23.23;19.52;;;;;;;18.60;82.32;101395.00;4995714;28;20494;-54
2022/08/19 04:58:25;;;;;;;24.63;20.70;;;;;;;18.62;82.57;101382.84;5000329;28;20517;-53
2022/08/19 05:00:51;;;;;;;27.08;20.63;;;;;;;18.59;82.67;101384.59;4994243;28;20435;-53
2022/08/19 05:03:17;;;;;;;25.38;21.00;;;;;;;18.62;82.57;101395.84;4994632;28;20034;-53
2022/08/19 05:05:45;;;;;;;25.58;20.70;;;;;;;18.61;82.58;101396.72;4999607;28;20034;-53
2022/08/19 05:08:12;;;;;;;26.25;20.77;;;;;;;18.62;82.63;101393.25;4995308;28;20686;-53
2022/08/19 05:10:39;;;;;;;25.15;21.90;;;;;;;18.60;82.64;101399.34;5000250;28;20508;-52
2022/08/19 05:13:04;;;;;;;26.77;21.42;;;;;;;18.47;82.85;101399.28;4998570;28;20044;-53
2022/08/19 05:15:30;;;;;;;25.40;20.73;;;;;;;18.53;82.33;101400.19;4994820;28;20033;-51
2022/08/19 05:23:24;;;;;;;31.00;25.05;;;;;;;18.48;83.66;101421.84;4998146;28;20137;-52
2022/08/19 05:25:51;;;;;;;29.65;24.10;;;;;;;18.54;83.45;101426.22;4994278;28;20563;-52
2022/08/19 05:28:18;;;;;;;37.15;27.10;;;;;;;18.52;84.02;101425.34;4996693;28;20512;-52
2022/08/19 05:30:44;;;;;;;38.60;28.05;;;;;;;18.56;83.91;101428.81;4994746;28;20144;-53
2022/08/19 05:33:11;;;;;;;38.72;29.80;;;;;;;18.61;83.82;101433.19;4994084;28;20470;-52
2022/08/19 05:35:38;;;;;;;41.08;30.42;;;;;;;18.59;84.13;101434.06;4998090;28;20026;-52
2022/08/19 05:38:07;;;;;;;42.90;32.42;;;;;;;18.61;84.10;101427.97;4996824;28;20060;-53
2022/08/19 05:40:36;;;;;;;43.30;32.00;;;;;;;18.58;84.56;101432.31;4996486;28;20402;-52
2022/08/19 05:43:03;;;;;;;45.22;31.38;;;;;;;18.63;84.06;101441.03;4993537;28;20219;-53
2022/08/19 05:45:29;;;;;;;44.15;31.85;;;;;;;18.55;84.48;101438.38;4992817;28;20048;-53
2022/08/19 05:47:54;;;;;;;44.10;32.53;;;;;;;18.65;84.02;101441.91;4995582;28;20034;-51
2022/08/19 05:50:20;;;;;;;44.08;32.65;;;;;;;18.69;83.76;101441.97;4997040;28;20518;-52
2022/08/19 05:52:45;;;;;;;48.95;33.35;;;;;;;18.73;83.92;101437.63;4994010;28;20029;-51
2022/08/19 05:55:11;;;;;;;42.63;32.90;;;;;;;18.70;84.25;101443.69;4996970;28;20151;-53
2022/08/19 05:57:36;;;;;;;48.53;34.40;;;;;;;18.74;84.12;101440.22;4995254;28;20076;-52
2022/08/19 06:00:08;;;;;;;47.78;34.78;;;;;;;18.78;84.70;101450.66;4999545;28;20042;-52
2022/08/19 06:02:35;;;;;;;48.70;35.28;;;;;;;18.74;85.23;101437.63;5000778;28;20920;-53
2022/08/19 06:05:01;;;;;;;54.05;36.63;;;;;;;18.78;85.04;101429.81;4997889;28;20125;-51
2022/08/19 06:07:27;;;;;;;53.63;36.55;;;;;;;18.81;84.76;101427.22;4998219;28;20037;-53
2022/08/19 06:09:52;;;;;;;55.22;36.58;;;;;;;18.85;84.91;101426.38;4998225;28;20042;-52
2022/08/19 06:12:18;;;;;;;55.72;38.20;;;;;;;18.86;84.58;101421.16;5001889;28;20073;-52
2022/08/19 06:14:43;;;;;;;55.42;38.65;;;;;;;18.93;84.80;101427.28;4999080;28;20029;-51
2022/08/19 06:17:08;;;;;;;55.08;37.60;;;;;;;18.94;85.25;101426.41;4998240;28;20038;-53
2022/08/19 06:19:34;;;;;;;54.65;37.85;;;;;;;19.03;84.78;101421.19;5000111;28;20088;-52
2022/08/19 06:22:00;;;;;;;53.80;36.28;;;;;;;19.06;84.62;101417.75;4999681;28;20105;-52
2022/08/19 06:24:28;;;;;;;54.00;35.70;;;;;;;19.07;84.69;101422.97;4997633;28;20109;-53
2022/08/19 06:26:55;;;;;;;52.25;36.80;;;;;;;19.13;84.10;101420.38;4995340;28;20026;-53
2022/08/19 06:29:23;;;;;;;52.33;36.05;;;;;;;19.18;84.33;101421.25;4999046;28;20057;-53
2022/08/19 06:31:51;;;;;;;56.63;36.33;;;;;;;19.21;83.47;101421.22;5003250;28;20088;-51
2022/08/19 06:34:17;;;;;;;53.67;37.20;;;;;;;19.29;83.87;101419.53;5002815;28;20060;-53
2022/08/19 06:36:46;;;;;;;52.28;35.33;;;;;;;19.37;83.32;101426.47;5003564;28;20056;-50
2022/08/19 06:39:13;;;;;;;;;;;;;;;19.56;82.84;101423.88;5002748;28;20038;-53
2022/08/19 06:41:42;;;;;;;50.65;34.17;;;;;;;19.49;83.48;101429.97;5003154;28;19925;-53
2022/08/19 06:44:09;;;;;;;49.70;35.42;;;;;;;19.51;83.32;101420.38;5003230;28;20402;-52
2022/08/19 06:46:35;;;;;;;48.75;34.72;;;;;;;19.60;83.38;101426.53;5001457;28;21705;-52
2022/08/19 06:49:01;;;;;;;53.20;35.13;;;;;;;19.64;83.08;101423.91;5004593;28;20026;-53
2022/08/19 06:51:26;;;;;;;56.78;35.20;;;;;;;19.75;82.87;101419.53;5001260;28;20146;-53
2022/08/19 06:53:54;;;;;;;51.53;34.70;;;;;;;19.79;82.90;101421.28;5004436;28;20040;-52
2022/08/19 06:56:24;;;;;;;49.13;35.45;;;;;;;19.79;82.66;101423.91;4998761;28;21765;-52
2022/08/19 06:58:52;;;;;;;51.45;34.83;;;;;;;19.78;82.64;101418.69;5003027;28;20152;-51
2022/08/19 07:01:19;;;;;;;51.38;34.95;;;;;;;19.80;82.79;101430.84;4997284;28;20068;-53
2022/08/19 07:03:46;;;;;;;55.85;35.15;;;;;;;19.83;82.61;101433.44;5000110;28;20048;-52
2022/08/19 07:06:17;;;;;;;56.63;35.78;;;;;;;19.83;82.87;101433.44;4997800;28;20203;-53
2022/08/19 07:08:43;;;;;;;52.00;35.42;;;;;;;19.83;82.52;101428.22;4993385;28;20085;-52
2022/08/19 07:11:12;;;;;;;52.38;35.65;;;;;;;19.90;82.61;101436.94;4998702;28;20037;-53
2022/08/19 07:13:39;;;;;;;56.30;36.67;;;;;;;19.94;82.75;101437.78;4997827;28;20037;-52
2022/08/19 07:16:09;;;;;;;54.75;37.45;;;;;;;19.95;83.15;101440.38;5007441;28;20026;-53
2022/08/19 07:18:35;;;;;;;62.00;39.40;;;;;;;19.96;83.04;101439.53;5001452;28;20045;-51
2022/08/19 07:21:06;;;;;;;58.05;38.50;;;;;;;19.98;83.02;101448.22;5000979;28;20104;-51
2022/08/19 07:23:31;;;;;;;65.90;39.13;;;;;;;20.00;82.60;101448.22;4998775;28;20029;-52
2022/08/19 07:25:57;;;;;;;59.20;39.38;;;;;;;20.00;83.13;101450.84;4995261;28;20037;-53
2022/08/19 07:28:22;;;;;;;69.22;42.53;;;;;;;19.99;83.02;101454.31;4994095;28;20048;-51
2022/08/19 07:30:49;;;;;;;62.10;42.35;;;;;;;19.96;82.88;101446.47;4998648;28;20549;-50
2022/08/19 07:33:14;;;;;;;62.40;40.50;;;;;;;19.99;82.80;101449.97;4997311;28;20062;-52
2022/08/19 07:35:40;;;;;;;63.20;39.03;;;;;;;19.99;83.28;101449.09;5001845;28;20113;-52
2022/08/19 07:38:06;;;;;;;61.65;38.60;;;;;;;20.00;82.72;101458.66;4999368;28;20042;-52
2022/08/19 07:40:31;;;;;;;58.05;37.17;;;;;;;20.00;82.86;101451.69;5004591;28;20475;-52
2022/08/19 07:42:57;;;;;;;56.75;37.30;;;;;;;20.03;83.29;101454.31;5002544;28;20120;-53
2022/08/19 07:45:22;;;;;;;53.20;35.90;;;;;;;20.06;83.17;101458.66;5001761;28;20431;-52
2022/08/19 07:47:47;;;;;;;59.85;36.75;;;;;;;20.05;83.59;101457.78;5001276;28;20034;-53
2022/08/19 07:50:13;;;;;;;52.88;35.40;;;;;;;20.09;83.97;101464.75;4998041;28;20069;-53
2022/08/19 07:52:39;;;;;;;58.67;36.10;;;;;;;20.08;82.92;101467.34;5001389;28;20029;-53
2022/08/19 07:55:07;;;;;;;56.88;35.88;;;;;;;20.14;83.40;101479.53;5001767;28;20033;-52
2022/08/19 07:57:32;;;;;;;62.80;37.30;;;;;;;20.11;83.58;101474.31;5003581;28;20089;-53
2022/08/19 07:59:58;;;;;;;59.05;36.60;;;;;;;20.14;83.37;101472.56;4997051;28;20864;-51
2022/08/19 08:02:24;;;;;;;60.70;37.13;;;;;;;20.15;84.05;101483.91;4999632;28;20040;-52
2022/08/19 08:10:17;;;;;;;64.25;37.22;;;;;;;20.15;83.52;101476.06;4996522;28;20128;-53
2022/08/19 08:12:43;;;;;;;60.70;37.17;;;;;;;20.17;83.95;101480.41;5002347;28;20548;-53
2022/08/19 08:15:16;;;;;;;60.67;37.63;;;;;;;20.18;84.29;101476.91;5004256;28;20030;-53
2022/08/19 08:17:42;;;;;;;54.10;37.30;;;;;;;20.20;84.71;101485.59;5005683;28;20036;-54
2022/08/19 08:20:08;;;;;;;60.10;36.65;;;;;;;20.22;84.32;101489.09;5006831;28;20033;-53
2022/08/19 08:25:22;;;;;;;51.60;35.55;;;;;;;20.24;83.98;101492.56;5006829;28;20037;-53
2022/08/19 08:27:49;;;;;;;58.90;38.05;;;;;;;20.26;84.58;101496.06;5004575;28;20084;-52
2022/08/19 08:30:25;;;;;;;59.15;36.33;;;;;;;20.28;84.96;101499.53;5003656;28;20157;-52
2022/08/19 08:32:50;;;;;;;54.53;35.95;;;;;;;20.30;84.34;101508.22;5003946;28;20141;-54
2022/08/19 08:35:19;;;;;;;50.28;35.30;;;;;;;20.31;84.77;101515.19;5006697;28;20137;-53
2022/08/19 08:37:47;;;;;;;48.65;33.55;;;;;;;20.34;84.83;101517.81;5004991;28;20514;-52
2022/08/19 08:40:18;;;;;;;46.47;31.27;;;;;;;20.37;84.31;101514.31;5003276;28;20033;-54
2022/08/19 08:42:53;;;;;;;46.60;30.98;;;;;;;20.33;84.45;101513.47;5005693;28;20680;-53
2022/08/19 08:45:20;;;;;;;45.42;31.40;;;;;;;20.35;84.10;101516.06;5003708;28;20467;-53
2022/08/19 08:47:49;;;;;;;47.97;32.75;;;;;;;20.33;84.01;101521.28;5007252;28;20030;-53
2022/08/19 08:50:23;;;;;;;46.38;31.50;;;;;;;20.36;83.49;101525.63;5005658;28;20414;-54
2022/08/19 08:52:53;;;;;;;45.67;31.70;;;;;;;20.37;84.24;101527.38;5002504;28;20112;-54
2022/08/19 08:55:28;;;;;;;43.97;31.20;;;;;;;20.40;83.94;101519.53;5004348;28;20036;-53
2022/08/19 08:58:06;;;;;;;47.70;31.27;;;;;;;20.44;83.68;101516.03;4999699;28;20457;-53
2022/08/19 09:00:34;;;;;;;45.85;30.67;;;;;;;20.43;83.89;101516.03;5001568;28;20026;-53
2022/08/19 09:03:02;;;;;;;46.63;31.63;;;;;;;20.41;83.63;101520.41;5007033;28;20486;-53
2022/08/19 09:05:57;;;;;;;48.63;31.05;;;;;;;20.51;83.63;101511.72;5004161;28;20022;-53
2022/08/19 09:08:47;;;;;;;47.50;31.38;;;;;;;20.55;82.83;101509.06;5004338;28;20113;-52
2022/08/19 09:11:31;;;;;;;47.47;32.67;;;;;;;20.59;83.59;101504.72;5000450;28;20022;-53
2022/08/19 09:14:02;;;;;;;51.17;35.00;;;;;;;20.59;83.83;101509.94;4996059;28;20389;-54
2022/08/19 09:16:27;;;;;;;55.40;36.45;;;;;;;20.61;83.67;101505.56;5001626;28;20030;-53
2022/08/19 09:19:02;;;;;;;51.63;36.47;;;;;;;20.66;83.94;101508.19;4999568;28;20552;-54
2022/08/19 09:21:29;;;;;;;52.28;36.38;;;;;;;20.65;84.21;101502.09;5004609;28;20022;-53
2022/08/19 09:23:54;;;;;;;55.17;37.88;;;;;;;20.66;83.26;101518.63;5003295;28;21660;-54
2022/08/19 09:26:21;;;;;;;55.58;38.88;;;;;;;20.67;82.96;101515.13;5004905;28;20525;-52
2022/08/19 09:28:49;;;;;;;55.42;37.97;;;;;;;20.67;82.44;101520.38;5000295;28;20053;-52
2022/08/19 09:31:24;;;;;;;56.33;38.08;;;;;;;20.67;83.26;101530.81;5004801;28;20161;-52
2022/08/19 09:33:50;;;;;;;53.10;37.10;;;;;;;20.65;82.33;101522.13;5004080;28;20482;-53
2022/08/19 09:36:19;;;;;;;53.65;37.00;;;;;;;20.63;82.52;101519.53;4988449;28;20029;-53
2022/08/19 09:38:45;;;;;;;54.15;37.55;;;;;;;20.70;82.69;101528.22;4999452;28;20498;-56
2022/08/19 09:41:19;;;;;;;56.50;37.28;;;;;;;20.72;82.90;101529.06;5002046;28;20080;-52
2022/08/19 09:43:55;;;;;;;56.83;39.08;;;;;;;20.72;83.38;101521.22;4999606;28;20033;-53
2022/08/19 09:46:23;;;;;;;50.35;37.85;;;;;;;20.70;81.88;101522.97;5001325;28;20049;-53
2022/08/19 09:48:50;;;;;;;54.30;37.17;;;;;;;20.73;82.44;101515.13;5001137;28;20041;-51
2022/08/19 09:51:19;;;;;;;54.60;37.92;;;;;;;20.76;82.46;101525.56;5004695;28;20509;-52
2022/08/19 09:53:46;;;;;;;58.85;38.20;;;;;;;20.81;81.84;101527.31;5004306;28;20034;-53
2022/08/19 09:56:12;;;;;;;56.05;38.40;;;;;;;20.85;82.46;101529.00;5004548;28;20103;-49
2022/08/19 09:58:39;;;;;;;54.40;37.67;;;;;;;20.88;82.60;101529.00;5003003;28;20233;-54
2022/08/19 10:01:07;;;;;;;55.95;38.20;;;;;;;20.89;82.20;101532.50;5006242;28;20552;-53
2022/08/19 10:03:34;;;;;;;53.10;37.92;;;;;;;20.95;81.83;101536.84;5006080;28;20033;-53
2022/08/19 10:06:02;;;;;;;58.40;38.55;;;;;;;21.00;81.83;101535.06;4998767;28;20026;-51
2022/08/19 10:08:33;;;;;;;54.72;39.03;;;;;;;21.01;81.59;101534.19;4997119;28;20034;-53
2022/08/19 10:11:00;;;;;;;53.38;35.97;;;;;;;21.07;81.98;101539.38;5005482;28;20026;-53
2022/08/19 10:13:28;;;;;;;54.70;36.85;;;;;;;21.08;82.28;101531.53;5006053;28;20034;-54
2022/08/19 10:16:01;;;;;;;54.92;36.72;;;;;;;21.14;82.15;101538.47;5004670;28;20057;-52
2022/08/19 10:18:27;;;;;;;56.22;37.63;;;;;;;21.15;81.68;101534.97;5000181;28;20033;-54
2022/08/19 10:21:07;;;;;;;49.60;35.50;;;;;;;21.24;82.14;101539.31;5003983;28;20029;-51
2022/08/19 10:23:32;;;;;;;56.17;37.15;;;;;;;21.19;81.53;101528.00;5001087;28;20028;-52
2022/08/19 10:26:00;;;;;;;50.88;34.92;;;;;;;21.18;81.22;101527.13;5004026;28;20026;-52
2022/08/19 10:28:25;;;;;;;46.65;32.55;;;;;;;21.17;80.61;101520.16;5005670;28;20038;-52
2022/08/19 10:30:51;;;;;;;45.10;31.15;;;;;;;21.16;79.83;101523.63;5004204;28;20121;-53
2022/08/19 10:33:16;;;;;;;42.35;30.55;;;;;;;21.20;80.10;101521.91;5006046;28;20038;-53
2022/08/19 10:35:42;;;;;;;41.03;30.52;;;;;;;21.17;79.87;101528.00;5006177;28;20038;-52
2022/08/19 10:38:07;;;;;;;44.78;32.13;;;;;;;21.21;79.61;101528.84;5004131;28;20022;-52
2022/08/19 10:40:32;;;;;;;49.95;32.65;;;;;;;21.21;79.91;101532.34;5005734;28;20121;-52
2022/08/19 10:42:58;;;;;;;47.53;33.33;;;;;;;21.19;79.70;101528.00;4999145;28;20116;-53
2022/08/19 10:45:25;;;;;;;50.78;34.13;;;;;;;21.20;80.39;101524.50;5003110;28;20513;-50
2022/08/19 10:47:52;;;;;;;48.72;33.75;;;;;;;21.22;79.97;101531.44;5000749;28;20676;-54
2022/08/19 10:53:10;;;;;;;44.70;34.78;;;;;;;21.29;79.15;101525.34;5000593;28;20057;-53
2022/08/19 10:58:24;;;;;;;48.00;33.80;;;;;;;21.36;79.38;101523.59;5004908;28;20048;-52
2022/08/19 11:00:58;;;;;;;49.90;34.65;;;;;;;21.41;79.50;101520.03;5001831;28;20056;-53
2022/08/19 11:03:25;;;;;;;46.90;34.67;;;;;;;21.41;79.17;101514.81;5000396;28;20394;-52
2022/08/19 11:06:02;;;;;;;47.40;34.72;;;;;;;21.47;79.33;101513.03;5003560;28;20030;-48
2022/08/19 11:08:28;;;;;;;45.65;34.25;;;;;;;21.50;79.60;101507.78;5004072;28;20406;-52
2022/08/19 11:11:00;;;;;;;47.72;34.65;;;;;;;21.51;78.73;101510.38;5003108;28;20040;-52
2022/08/19 11:13:26;;;;;;;44.33;32.30;;;;;;;21.60;78.60;101507.72;5000135;28;20129;-53
2022/08/19 11:15:59;;;;;;;46.60;32.85;;;;;;;21.62;78.52;101505.94;5005036;28;20129;-48
2022/08/19 11:18:24;;;;;;;45.45;31.70;;;;;;;21.68;78.50;101508.53;5007836;28;20176;-52
2022/08/19 11:20:49;;;;;;;46.53;32.95;;;;;;;21.74;78.58;101507.63;5005738;28;20125;-49
2022/08/19 11:23:15;;;;;;;47.67;33.08;;;;;;;21.81;79.01;101513.66;5008102;28;20034;-51
2022/08/19 11:25:41;;;;;;;48.08;32.83;;;;;;;21.85;78.11;101508.41;5009496;28;20168;-54
2022/08/19 11:28:06;;;;;;;45.75;31.77;;;;;;;21.92;78.29;101506.59;5008481;28;20045;-53
2022/08/19 11:30:33;;;;;;;47.63;32.00;;;;;;;22.02;78.68;101510.84;5006380;28;20033;-53
2022/08/19 11:33:00;;;;;;;44.80;32.38;;;;;;;22.05;77.77;101512.59;5006181;28;20095;-50
2022/08/19 11:35:26;;;;;;;42.33;30.92;;;;;;;22.05;76.46;101507.34;5005996;28;20569;-54
2022/08/19 11:37:51;;;;;;;41.53;30.17;;;;;;;22.09;75.46;101503.84;5007953;28;20077;-52